Hovedside
METAR-TAF:

METAR-TAF

Lufthavner :

Jeddah, Saudi-Arabia

breddegrad: 21-42N, lengdegrad: 039-11E, høyde over havet: 15 m

Gjeldene værobservasjon

Denne rapporten ble laget for 54 minutter siden, klokken 04:00 UTC
Vind 10 kt fra Vest-nordvest
Temperatur 32°C
Luftfuktighet 56%
Trykk 1003 hPa
Sikt 10 km eller mer
Få skyer i en høyde av 4000 ft

METAR: OEJN 210400Z 30010KT 9999 FEW040 32/22 Q1003 NOSIG

Tid: 07:54 (04:54 UTC)

Varsel

Denne rapporten ble laget for 5 timer og 54 minutter siden, klokken 23:00 UTC
Varsel gyldig fra 21. klokken 00 UTC til 22. klokken 06 UTC
Vind 3 kt fra skiftende retning
Sikt: 7000 m
Spredte skyer i en høyde av 4000 ft
Blir
fra 21. klokken 06 UTC til 21. klokken 08 UTC
Vind 10 kt fra Nordvest med vindkast opp mot 20 kt
Sikt 10 km eller mer
Få skyer i en høyde av 4000 ft

TAF: OEJN 202300Z 2100/2206 VRB03KT 7000 SCT040 BECMG 2106/2108 32010G20KT 9999 FEW040

Værobservasjoner og værvarsel for over 4000 flyplasser (METAR- og TAF-rapporter).

Tilgjengelige stasjoner er representert av de røde og gule prikkene på kartet.

Hold musepekeren over prikken for å se navnet på stasjonen.

Klikk så for å se værobservasjoner og -varsler.

For å forandre kartet kan du klikke på den grønne knappen med svart kryss for å zoome inn, på den grønne knappen med strek for å zoome ut, eller på de grønne pilene for å se tilstøtende kart.


METAR-TAF: